createdAt,value
2022-10-23T00:00:36.918Z,14.2
2022-10-23T00:01:36.932Z,14.17
2022-10-23T00:02:36.931Z,14.16
2022-10-23T00:03:36.932Z,14.16
2022-10-23T00:04:36.919Z,14.16
2022-10-23T00:05:36.933Z,14.11
2022-10-23T00:06:36.933Z,14.09
2022-10-23T00:07:36.932Z,14.06
2022-10-23T00:08:36.920Z,14.03
2022-10-23T00:09:36.958Z,14.02
2022-10-23T00:10:36.933Z,14.02
2022-10-23T00:11:36.921Z,14.05
2022-10-23T00:12:36.921Z,14.08
2022-10-23T00:13:36.934Z,14.09
2022-10-23T00:14:36.935Z,14.1
2022-10-23T00:15:36.922Z,14.1
2022-10-23T00:16:36.936Z,14.09
2022-10-23T00:17:36.935Z,14.08
2022-10-23T00:18:36.936Z,14.08
2022-10-23T00:19:36.923Z,14.06
2022-10-23T00:20:36.937Z,14.02
2022-10-23T00:21:36.940Z,13.97
2022-10-23T00:22:36.937Z,13.93
2022-10-23T00:23:36.924Z,13.9
2022-10-23T00:24:40.644Z,13.88
2022-10-23T00:25:36.938Z,13.86
2022-10-23T00:26:36.938Z,13.85
2022-10-23T00:27:36.925Z,13.82
2022-10-23T00:28:36.939Z,13.81
2022-10-23T00:29:36.939Z,13.81
2022-10-23T00:30:36.925Z,13.84
2022-10-23T00:31:36.926Z,13.86
2022-10-23T00:32:36.939Z,13.87
2022-10-23T00:33:36.939Z,13.89
2022-10-23T00:34:36.926Z,13.93
2022-10-23T00:35:36.966Z,13.96
2022-10-23T00:36:36.941Z,14
2022-10-23T00:37:36.941Z,14.04
2022-10-23T00:38:36.927Z,14.06
2022-10-23T00:39:36.941Z,14.05
2022-10-23T00:40:36.941Z,14.03
2022-10-23T00:41:36.941Z,13.98
2022-10-23T00:42:36.928Z,13.93
2022-10-23T00:43:36.942Z,13.88
2022-10-23T00:44:36.941Z,13.85
2022-10-23T00:45:36.942Z,13.83
2022-10-23T00:46:36.929Z,13.79
2022-10-23T00:47:36.992Z,13.74
2022-10-23T00:48:36.944Z,13.7
2022-10-23T00:49:36.930Z,13.66
2022-10-23T00:50:36.931Z,13.62
2022-10-23T00:51:36.944Z,13.6
2022-10-23T00:52:36.945Z,13.59
2022-10-23T00:53:36.931Z,13.59
2022-10-23T00:54:36.945Z,13.59
2022-10-23T00:55:36.945Z,13.59
2022-10-23T00:56:36.945Z,13.61
2022-10-23T00:57:36.932Z,13.64
2022-10-23T00:58:36.946Z,13.65
2022-10-23T00:59:36.949Z,13.68
2022-10-23T01:00:36.945Z,13.69
2022-10-23T01:01:36.933Z,13.69
2022-10-23T01:02:36.947Z,13.67
2022-10-23T01:03:36.947Z,13.63
2022-10-23T01:04:36.946Z,13.59
2022-10-23T01:05:36.934Z,13.55
2022-10-23T01:06:36.948Z,13.52
2022-10-23T01:07:36.948Z,13.5
2022-10-23T01:08:36.935Z,13.52
2022-10-23T01:09:36.935Z,13.53
2022-10-23T01:10:36.948Z,13.54
2022-10-23T01:11:36.949Z,13.57
2022-10-23T01:12:36.936Z,13.57
2022-10-23T01:13:36.950Z,13.56
2022-10-23T01:14:36.949Z,13.56
2022-10-23T01:15:36.949Z,13.57
2022-10-23T01:16:36.937Z,13.58
2022-10-23T01:17:36.951Z,13.57
2022-10-23T01:18:36.951Z,13.55
2022-10-23T01:19:36.951Z,13.53
2022-10-23T01:20:36.938Z,13.5
2022-10-23T01:21:36.952Z,13.45
2022-10-23T01:22:36.953Z,13.42
2022-10-23T01:23:36.951Z,13.39
2022-10-23T01:24:45.173Z,13.37
2022-10-23T01:25:37.015Z,13.35
2022-10-23T01:26:36.953Z,13.36
2022-10-23T01:27:36.939Z,13.37
2022-10-23T01:28:36.940Z,13.35
2022-10-23T01:29:36.953Z,13.32
2022-10-23T01:30:36.953Z,13.31
2022-10-23T01:31:36.940Z,13.28
2022-10-23T01:32:36.954Z,13.25
2022-10-23T01:33:36.953Z,13.23
2022-10-23T01:34:45.189Z,13.23
2022-10-23T01:35:36.941Z,13.22
2022-10-23T01:36:36.954Z,13.22
2022-10-23T01:37:36.955Z,13.2
2022-10-23T01:38:36.955Z,13.17
2022-10-23T01:39:36.942Z,13.15
2022-10-23T01:40:36.956Z,13.12
2022-10-23T01:41:36.956Z,13.12
2022-10-23T01:42:36.955Z,13.1
2022-10-23T01:43:36.943Z,13.08
2022-10-23T01:44:45.191Z,13.06
2022-10-23T01:45:36.957Z,13.06
2022-10-23T01:46:36.956Z,13.08
2022-10-23T01:47:36.945Z,13.09
2022-10-23T01:48:36.958Z,13.12
2022-10-23T01:49:36.959Z,13.17
2022-10-23T01:50:36.945Z,13.21
2022-10-23T01:51:36.945Z,13.23
2022-10-23T01:52:36.958Z,13.25
2022-10-23T01:53:37.022Z,13.27
2022-10-23T01:54:36.945Z,13.29
2022-10-23T01:55:36.959Z,13.3
2022-10-23T01:56:36.960Z,13.28
2022-10-23T01:57:36.959Z,13.26
2022-10-23T01:58:36.946Z,13.23
2022-10-23T01:59:36.960Z,13.21
2022-10-23T02:01:36.961Z,13.19
2022-10-23T02:02:36.947Z,13.18
2022-10-23T02:03:36.961Z,13.18
2022-10-23T02:04:36.960Z,13.16
2022-10-23T02:05:36.972Z,13.14
2022-10-23T02:06:36.949Z,13.11
2022-10-23T02:07:36.962Z,13.07
2022-10-23T02:08:36.962Z,13.04
2022-10-23T02:09:36.949Z,13.02
2022-10-23T02:10:36.949Z,13.01
2022-10-23T02:11:36.962Z,13.04
2022-10-23T02:12:36.963Z,13.09
2022-10-23T02:13:36.950Z,13.13
2022-10-23T02:14:36.964Z,13.14
2022-10-23T02:15:36.964Z,13.17
2022-10-23T02:16:36.964Z,13.2
2022-10-23T02:17:36.951Z,13.23
2022-10-23T02:18:36.965Z,13.23
2022-10-23T02:19:36.965Z,13.23
2022-10-23T02:20:36.965Z,13.22
2022-10-23T02:21:36.953Z,13.21
2022-10-23T02:22:36.966Z,13.19
2022-10-23T02:23:36.967Z,13.2
2022-10-23T02:24:36.952Z,13.21
2022-10-23T02:25:36.953Z,13.2
2022-10-23T02:26:36.967Z,13.19
2022-10-23T02:27:36.967Z,13.18
2022-10-23T02:28:36.953Z,13.18
2022-10-23T02:29:36.992Z,13.14
2022-10-23T02:30:36.967Z,13.13
2022-10-23T02:31:36.968Z,13.12
2022-10-23T02:32:36.954Z,13.11
2022-10-23T02:33:36.968Z,13.07
2022-10-23T02:34:36.968Z,13.04
2022-10-23T02:35:36.969Z,13.03
2022-10-23T02:36:36.956Z,13.03
2022-10-23T02:37:36.969Z,13.01
2022-10-23T02:38:36.969Z,12.99
2022-10-23T02:39:36.969Z,12.98
2022-10-23T02:40:36.956Z,12.94
2022-10-23T02:41:37.019Z,12.91
2022-10-23T02:42:36.969Z,12.92
2022-10-23T02:43:36.957Z,12.93
2022-10-23T02:44:36.957Z,12.91
2022-10-23T02:45:36.970Z,12.87
2022-10-23T02:46:36.970Z,12.86
2022-10-23T02:47:36.958Z,12.86
2022-10-23T02:48:36.958Z,12.84
2022-10-23T02:49:36.971Z,12.84
2022-10-23T02:50:36.972Z,12.85
2022-10-23T02:51:36.959Z,12.84
2022-10-23T02:52:36.973Z,12.83
2022-10-23T02:53:36.973Z,12.84
2022-10-23T02:54:36.973Z,12.87
2022-10-23T02:55:36.960Z,12.9
2022-10-23T02:57:46.232Z,12.96
2022-10-23T02:58:36.973Z,12.99
2022-10-23T02:59:36.960Z,13.02
2022-10-23T03:00:36.974Z,13.02
2022-10-23T03:01:36.974Z,13
2022-10-23T03:02:36.975Z,12.99
2022-10-23T03:03:36.961Z,12.96
2022-10-23T03:04:36.975Z,12.92
2022-10-23T03:05:36.974Z,12.92
2022-10-23T03:06:36.962Z,12.91
2022-10-23T03:07:36.962Z,12.91
2022-10-23T03:08:36.976Z,12.93
2022-10-23T03:09:37.000Z,12.95
2022-10-23T03:10:36.963Z,12.97
2022-10-23T03:11:36.977Z,12.96
2022-10-23T03:12:36.977Z,12.93
2022-10-23T03:13:36.976Z,12.9
2022-10-23T03:14:36.964Z,12.87
2022-10-23T03:15:36.977Z,12.84
2022-10-23T03:16:36.978Z,12.81
2022-10-23T03:17:36.977Z,12.81
2022-10-23T03:18:36.965Z,12.82
2022-10-23T03:19:36.979Z,12.83
2022-10-23T03:20:36.979Z,12.86
2022-10-23T03:21:36.966Z,12.9
2022-10-23T03:22:36.966Z,12.93
2022-10-23T03:23:36.980Z,12.95
2022-10-23T03:24:36.979Z,12.98
2022-10-23T03:25:36.966Z,12.99
2022-10-23T03:26:36.967Z,12.98
2022-10-23T03:27:36.980Z,12.96
2022-10-23T03:28:36.981Z,12.94
2022-10-23T03:29:36.967Z,12.93
2022-10-23T03:30:36.981Z,12.91
2022-10-23T03:31:36.981Z,12.9
2022-10-23T03:32:36.981Z,12.92
2022-10-23T03:33:36.968Z,12.93
2022-10-23T03:34:36.982Z,12.94
2022-10-23T03:35:36.981Z,12.97
2022-10-23T03:36:36.981Z,13
2022-10-23T03:37:36.970Z,13.01
2022-10-23T03:38:36.982Z,13.01
2022-10-23T03:39:36.983Z,13
2022-10-23T03:40:36.970Z,12.99
2022-10-23T03:41:36.970Z,12.97
2022-10-23T03:42:36.983Z,12.97
2022-10-23T03:43:36.983Z,12.97
2022-10-23T03:44:36.971Z,12.98
2022-10-23T03:45:36.971Z,12.98
2022-10-23T03:46:36.985Z,12.99
2022-10-23T03:47:36.985Z,13.01
2022-10-23T03:48:36.971Z,13.03
2022-10-23T03:49:36.984Z,13.04
2022-10-23T03:50:36.986Z,13.04
2022-10-23T03:51:36.986Z,13.05
2022-10-23T03:52:36.972Z,13.05
2022-10-23T03:53:36.986Z,13.04
2022-10-23T03:54:36.986Z,13.07
2022-10-23T03:55:36.986Z,13.09
2022-10-23T03:56:36.973Z,13.1
2022-10-23T03:57:36.987Z,13.09
2022-10-23T03:58:36.986Z,13.09
2022-10-23T03:59:36.974Z,13.08
2022-10-23T04:00:36.974Z,13.03
2022-10-23T04:01:36.988Z,12.97
2022-10-23T04:02:36.987Z,12.92
2022-10-23T04:03:36.975Z,12.88
2022-10-23T04:04:36.975Z,12.85
2022-10-23T04:05:36.989Z,12.83
2022-10-23T04:06:36.989Z,12.82
2022-10-23T04:07:36.976Z,12.84
2022-10-23T04:08:36.990Z,12.85
2022-10-23T04:09:36.990Z,12.87
2022-10-23T04:10:36.990Z,12.89
2022-10-23T04:11:36.977Z,12.92
2022-10-23T04:12:36.991Z,12.93
2022-10-23T04:13:36.991Z,12.95
2022-10-23T04:14:36.990Z,12.98
2022-10-23T04:15:36.978Z,12.99
2022-10-23T04:16:36.992Z,12.99
2022-10-23T04:17:36.992Z,12.99
2022-10-23T04:18:36.978Z,12.98
2022-10-23T04:19:36.979Z,12.97
2022-10-23T04:20:36.992Z,12.98
2022-10-23T04:21:36.993Z,13
2022-10-23T04:22:36.979Z,13.02
2022-10-23T04:23:37.034Z,13.03
2022-10-23T04:24:36.993Z,13.03
2022-10-23T04:25:36.993Z,13.02
2022-10-23T04:26:36.980Z,13.02
2022-10-23T04:27:36.994Z,12.99
2022-10-23T04:28:36.994Z,12.95
2022-10-23T04:29:36.994Z,12.91
2022-10-23T04:30:36.981Z,12.89
2022-10-23T04:31:36.995Z,12.85
2022-10-23T04:32:36.995Z,12.84
2022-10-23T04:33:36.995Z,12.85
2022-10-23T04:34:36.982Z,12.84
2022-10-23T04:35:37.036Z,12.83
2022-10-23T04:36:46.254Z,12.83
2022-10-23T04:37:36.983Z,12.83
2022-10-23T04:38:36.983Z,12.83
2022-10-23T04:39:36.997Z,12.81
2022-10-23T04:40:36.996Z,12.82
2022-10-23T04:41:36.983Z,12.83
2022-10-23T04:42:37.021Z,12.82
2022-10-23T04:43:36.998Z,12.81
2022-10-23T04:44:36.998Z,12.82
2022-10-23T04:45:36.984Z,12.83
2022-10-23T04:46:36.998Z,12.83
2022-10-23T04:47:36.998Z,12.84
2022-10-23T04:48:36.998Z,12.86
2022-10-23T04:49:36.985Z,12.86
2022-10-23T04:50:36.999Z,12.85
2022-10-23T04:51:36.998Z,12.86
2022-10-23T04:52:36.999Z,12.88
2022-10-23T04:53:36.986Z,12.9
2022-10-23T04:54:37.000Z,12.88
2022-10-23T04:55:36.999Z,12.87
2022-10-23T04:56:36.987Z,12.84
2022-10-23T04:57:36.987Z,12.81
2022-10-23T04:58:37.001Z,12.79
2022-10-23T04:59:37.001Z,12.78
2022-10-23T05:00:36.988Z,12.8
2022-10-23T05:01:36.988Z,12.79
2022-10-23T05:02:37.002Z,12.78
2022-10-23T05:03:37.001Z,12.78
2022-10-23T05:04:36.989Z,12.76
2022-10-23T05:05:37.002Z,12.74
2022-10-23T05:06:37.002Z,12.73
2022-10-23T05:07:37.003Z,12.73
2022-10-23T05:08:37.002Z,12.74
2022-10-23T05:09:37.003Z,12.73
2022-10-23T05:10:37.004Z,12.73
2022-10-23T05:11:37.004Z,12.74
2022-10-23T05:12:36.991Z,12.76
2022-10-23T05:13:37.004Z,12.77
2022-10-23T05:14:37.004Z,12.79
2022-10-23T05:15:36.991Z,12.83
2022-10-23T05:16:36.991Z,12.85
2022-10-23T05:17:37.005Z,12.87
2022-10-23T05:18:37.004Z,12.88
2022-10-23T05:19:36.992Z,12.9
2022-10-23T05:20:37.047Z,12.91
2022-10-23T05:21:37.006Z,12.93
2022-10-23T05:22:37.005Z,12.95
2022-10-23T05:23:36.993Z,12.96
2022-10-23T05:24:37.007Z,12.96
2022-10-23T05:25:37.007Z,12.93
2022-10-23T05:26:37.007Z,12.93
2022-10-23T05:27:36.994Z,12.91
2022-10-23T05:28:37.008Z,12.9
2022-10-23T05:29:37.007Z,12.89
2022-10-23T05:30:37.008Z,12.89
2022-10-23T05:31:36.996Z,12.87
2022-10-23T05:32:37.010Z,12.85
2022-10-23T05:33:37.009Z,12.86
2022-10-23T05:34:36.995Z,12.87
2022-10-23T05:35:36.997Z,12.86
2022-10-23T05:36:37.009Z,12.85
2022-10-23T05:37:37.009Z,12.85
2022-10-23T05:38:36.996Z,12.86
2022-10-23T05:39:37.010Z,12.87
2022-10-23T05:40:37.010Z,12.9
2022-10-23T05:41:37.010Z,12.95
2022-10-23T05:42:36.997Z,13
2022-10-23T05:43:37.010Z,13.03
2022-10-23T05:44:37.038Z,13.08
2022-10-23T05:45:37.011Z,13.11
2022-10-23T05:46:36.998Z,13.13
2022-10-23T05:47:37.011Z,13.11
2022-10-23T05:48:37.012Z,13.09
2022-10-23T05:49:37.011Z,13.08
2022-10-23T05:50:36.999Z,13.09
2022-10-23T05:51:37.013Z,13.08
2022-10-23T05:52:37.013Z,13.07
2022-10-23T05:53:37.000Z,13.05
2022-10-23T05:54:37.001Z,13.03
2022-10-23T05:55:37.014Z,13.04
2022-10-23T05:56:37.013Z,13.06
2022-10-23T05:57:37.000Z,13.1
2022-10-23T05:58:37.039Z,13.13
2022-10-23T05:59:37.015Z,13.15
2022-10-23T06:00:37.014Z,13.17
2022-10-23T06:01:37.001Z,13.17
2022-10-23T06:02:37.015Z,13.14
2022-10-23T06:03:37.015Z,13.11
2022-10-23T06:04:37.015Z,13.11
2022-10-23T06:05:37.002Z,13.11
2022-10-23T06:06:37.016Z,13.1
2022-10-23T06:07:37.016Z,13.11
2022-10-23T06:08:37.016Z,13.12
2022-10-23T06:09:37.003Z,13.11
2022-10-23T06:10:37.066Z,13.09
2022-10-23T06:11:37.016Z,13.09
2022-10-23T06:12:37.004Z,13.1
2022-10-23T06:13:37.004Z,13.12
2022-10-23T06:14:46.277Z,13.12
2022-10-23T06:15:37.018Z,13.16
2022-10-23T06:16:37.005Z,13.2
2022-10-23T06:17:37.005Z,13.23
2022-10-23T06:18:37.019Z,13.27
2022-10-23T06:19:37.018Z,13.31
2022-10-23T06:20:37.006Z,13.34
2022-10-23T06:21:37.020Z,13.36
2022-10-23T06:22:37.020Z,13.39
2022-10-23T06:23:37.020Z,13.44
2022-10-23T06:24:37.007Z,13.48
2022-10-23T06:25:37.021Z,13.52
2022-10-23T06:26:37.022Z,13.55
2022-10-23T06:27:37.021Z,13.59
2022-10-23T06:28:37.008Z,13.6
2022-10-23T06:29:37.021Z,13.6
2022-10-23T06:30:37.021Z,13.58
2022-10-23T06:31:37.008Z,13.55
2022-10-23T06:32:37.008Z,13.55
2022-10-23T06:33:37.022Z,13.55
2022-10-23T06:34:37.023Z,13.58
2022-10-23T06:35:37.009Z,13.63
2022-10-23T06:36:37.063Z,13.67
2022-10-23T06:37:37.023Z,13.72
2022-10-23T06:38:37.023Z,13.78
2022-10-23T06:39:37.010Z,13.85
2022-10-23T06:40:37.024Z,13.92
2022-10-23T06:41:37.024Z,13.98
2022-10-23T06:42:37.023Z,14.06
2022-10-23T06:43:37.011Z,14.11
2022-10-23T06:44:37.025Z,14.16
2022-10-23T06:45:37.024Z,14.2
2022-10-23T06:46:37.025Z,14.25
2022-10-23T06:47:37.012Z,14.29
2022-10-23T06:48:37.026Z,14.31
2022-10-23T06:49:37.025Z,14.34
2022-10-23T06:50:37.013Z,14.38
2022-10-23T06:51:37.013Z,14.39
2022-10-23T06:52:37.026Z,14.4
2022-10-23T06:53:37.028Z,14.44
2022-10-23T06:54:37.014Z,14.46
2022-10-23T06:55:37.014Z,14.45
2022-10-23T06:56:37.028Z,14.44
2022-10-23T06:57:37.027Z,14.45
2022-10-23T06:58:37.015Z,14.44
2022-10-23T06:59:37.029Z,14.41
2022-10-23T07:00:37.029Z,14.39
2022-10-23T07:01:37.029Z,14.42
2022-10-23T07:02:37.016Z,14.44
2022-10-23T07:03:37.029Z,14.48
2022-10-23T07:04:37.029Z,14.53
2022-10-23T07:05:37.029Z,14.59
2022-10-23T07:06:37.017Z,14.62
2022-10-23T07:07:37.030Z,14.65
2022-10-23T07:08:37.030Z,14.69
2022-10-23T07:09:37.017Z,14.74
2022-10-23T07:10:37.018Z,14.78
2022-10-23T07:11:37.030Z,14.81
2022-10-23T07:12:37.031Z,14.83
2022-10-23T07:13:37.018Z,14.87
2022-10-23T07:14:37.032Z,14.9
2022-10-23T07:15:37.031Z,14.95
2022-10-23T07:16:37.033Z,15.01
2022-10-23T07:17:37.019Z,15.06
2022-10-23T07:18:37.033Z,15.11
2022-10-23T07:19:37.033Z,15.18
2022-10-23T07:20:37.033Z,15.28
2022-10-23T07:21:37.020Z,15.38
2022-10-23T07:22:37.034Z,15.47
2022-10-23T07:23:37.034Z,15.56
2022-10-23T07:24:37.035Z,15.65
2022-10-23T07:25:37.021Z,15.71
2022-10-23T07:26:37.035Z,15.76
2022-10-23T07:27:37.035Z,15.81
2022-10-23T07:28:37.022Z,15.84
2022-10-23T07:29:37.023Z,15.85
2022-10-23T07:30:37.036Z,15.85
2022-10-23T07:31:37.035Z,15.88
2022-10-23T07:32:37.023Z,15.94
2022-10-23T07:33:37.037Z,16.02
2022-10-23T07:34:37.036Z,16.1
2022-10-23T07:35:37.037Z,16.19
2022-10-23T07:36:37.024Z,16.25
2022-10-23T07:37:37.038Z,16.29
2022-10-23T07:38:37.041Z,16.37
2022-10-23T07:39:37.039Z,16.45
2022-10-23T07:40:37.025Z,16.53
2022-10-23T07:41:37.038Z,16.61
2022-10-23T07:42:37.040Z,16.69
2022-10-23T07:43:37.039Z,16.78
2022-10-23T07:44:37.026Z,16.84
2022-10-23T07:45:42.904Z,16.89
2022-10-23T07:46:37.041Z,16.94
2022-10-23T07:47:37.028Z,16.99
2022-10-23T07:48:37.028Z,17.04
2022-10-23T07:49:37.042Z,17.07
2022-10-23T07:50:37.043Z,17.12
2022-10-23T07:51:37.028Z,17.16
2022-10-23T07:52:46.365Z,17.16
2022-10-23T07:53:37.043Z,17.15
2022-10-23T07:54:37.043Z,17.15
2022-10-23T07:55:37.029Z,17.15
2022-10-23T07:56:37.044Z,17.17
2022-10-23T07:57:37.044Z,17.2
2022-10-23T07:58:37.043Z,17.29
2022-10-23T07:59:37.031Z,17.4
2022-10-23T08:00:37.045Z,17.52
2022-10-23T08:01:37.045Z,17.66
2022-10-23T08:02:37.045Z,17.79
2022-10-23T08:03:37.032Z,17.95
2022-10-23T08:04:37.046Z,18.1
2022-10-23T08:05:37.045Z,18.29
2022-10-23T08:06:37.033Z,18.5
2022-10-23T08:07:37.033Z,18.7
2022-10-23T08:08:37.047Z,18.95
2022-10-23T08:09:37.046Z,19.2
2022-10-23T08:10:37.034Z,19.43
2022-10-23T08:11:37.035Z,19.64
2022-10-23T08:12:37.048Z,19.83
2022-10-23T08:13:37.048Z,19.96
2022-10-23T08:14:37.035Z,19.98
2022-10-23T08:15:37.050Z,19.95
2022-10-23T08:16:37.049Z,19.91
2022-10-23T08:17:37.050Z,19.93
2022-10-23T08:18:37.037Z,19.98
2022-10-23T08:19:37.051Z,20.04
2022-10-23T08:20:37.051Z,20.11
2022-10-23T08:21:37.052Z,20.2
2022-10-23T08:22:37.039Z,20.37
2022-10-23T08:23:37.052Z,20.58
2022-10-23T08:24:37.053Z,20.77
2022-10-23T08:25:37.039Z,20.98
2022-10-23T08:26:37.041Z,21.16
2022-10-23T08:27:37.054Z,21.33
2022-10-23T08:28:37.054Z,21.52
2022-10-23T08:29:37.041Z,21.7
2022-10-23T08:30:37.057Z,21.85
2022-10-23T08:31:37.055Z,21.99
2022-10-23T08:32:37.056Z,22.11
2022-10-23T08:33:37.042Z,22.19
2022-10-23T08:34:37.057Z,22.29
2022-10-23T08:35:37.056Z,22.54
2022-10-23T08:36:37.057Z,22.83
2022-10-23T08:37:37.044Z,23.05
2022-10-23T08:38:37.058Z,23.25
2022-10-23T08:39:37.058Z,23.37
2022-10-23T08:40:37.058Z,23.47
2022-10-23T08:41:37.046Z,23.7
2022-10-23T08:42:37.100Z,24.06
2022-10-23T08:43:37.060Z,24.43
2022-10-23T08:44:37.047Z,24.77
2022-10-23T08:45:40.649Z,25.04
2022-10-23T08:46:37.062Z,25.27
2022-10-23T08:47:37.062Z,25.54
2022-10-23T08:48:37.049Z,25.81
2022-10-23T08:49:37.049Z,26.07
2022-10-23T08:50:37.063Z,26.19
2022-10-23T08:51:37.063Z,26.35
2022-10-23T08:52:37.051Z,26.56
2022-10-23T08:53:37.065Z,26.83
2022-10-23T08:54:37.065Z,26.97
2022-10-23T08:55:37.065Z,26.92
2022-10-23T08:56:37.053Z,26.9
2022-10-23T08:57:37.067Z,26.91
2022-10-23T08:58:37.066Z,26.99
2022-10-23T08:59:37.068Z,27.15
2022-10-23T09:00:37.055Z,27.26
2022-10-23T09:01:37.069Z,27.34
2022-10-23T09:02:37.068Z,27.49
2022-10-23T09:03:37.056Z,27.72
2022-10-23T09:04:37.057Z,28.05
2022-10-23T09:05:37.071Z,28.28
2022-10-23T09:06:37.071Z,28.62
2022-10-23T09:07:37.058Z,28.8
2022-10-23T09:08:37.136Z,28.99
2022-10-23T09:09:37.073Z,29.32
2022-10-23T09:10:37.072Z,29.79
2022-10-23T09:11:37.060Z,30.13
2022-10-23T09:12:37.073Z,30.55
2022-10-23T09:13:37.075Z,31.2
2022-10-23T09:14:37.075Z,31.99
2022-10-23T09:15:37.063Z,32.78
2022-10-23T09:16:37.076Z,33.46
2022-10-23T09:17:37.078Z,33.82
2022-10-23T09:18:37.077Z,33.89
2022-10-23T09:19:37.064Z,33.84
2022-10-23T09:20:37.128Z,33.7
2022-10-23T09:21:37.078Z,33.55
2022-10-23T09:22:37.066Z,33.18
2022-10-23T09:23:37.067Z,32.66
2022-10-23T09:24:37.080Z,32.18
2022-10-23T09:25:37.082Z,31.62
2022-10-23T09:26:37.068Z,31.07
2022-10-23T09:27:37.083Z,30.59
2022-10-23T09:28:37.083Z,30.22
2022-10-23T09:29:37.084Z,29.95
2022-10-23T09:30:37.070Z,29.69
2022-10-23T09:31:46.343Z,29.45
2022-10-23T09:32:37.085Z,29.11
2022-10-23T09:33:37.085Z,28.72
2022-10-23T09:34:37.074Z,28.43
2022-10-23T09:35:37.086Z,28.21
2022-10-23T09:36:37.087Z,27.98
2022-10-23T09:37:37.088Z,27.74
2022-10-23T09:38:37.076Z,27.47
2022-10-23T09:39:37.113Z,27.2
2022-10-23T09:40:37.088Z,27.02
2022-10-23T09:41:37.076Z,26.87
2022-10-23T09:42:37.078Z,26.77
2022-10-23T09:43:37.091Z,26.68
2022-10-23T09:44:37.090Z,26.6
2022-10-23T09:45:45.313Z,26.5
2022-10-23T09:46:37.119Z,26.39
2022-10-23T09:47:37.093Z,26.29
2022-10-23T09:48:37.092Z,26.2
2022-10-23T09:49:37.080Z,26.09
2022-10-23T09:50:37.094Z,25.93
2022-10-23T09:51:37.095Z,25.81
2022-10-23T09:52:37.095Z,25.73
2022-10-23T09:53:37.082Z,25.69
2022-10-23T09:54:37.096Z,25.66
2022-10-23T09:55:45.333Z,25.74
2022-10-23T09:56:37.097Z,25.93
2022-10-23T09:57:37.085Z,26.16
2022-10-23T09:58:37.098Z,26.42
2022-10-23T09:59:37.098Z,26.95
2022-10-23T10:00:37.085Z,27.66
2022-10-23T10:01:37.086Z,28.4
2022-10-23T10:02:37.100Z,29.28
2022-10-23T10:03:37.101Z,30.09
2022-10-23T10:04:37.087Z,30.69
2022-10-23T10:05:45.361Z,31.12
2022-10-23T10:06:37.102Z,31.59
2022-10-23T10:07:37.104Z,32.11
2022-10-23T10:08:37.089Z,32.72
2022-10-23T10:09:37.104Z,33.2
2022-10-23T10:10:37.104Z,33.48
2022-10-23T10:11:37.104Z,33.84
2022-10-23T10:12:37.092Z,34.24
2022-10-23T10:13:37.105Z,34.41
2022-10-23T10:14:37.108Z,34.25
2022-10-23T10:15:37.107Z,33.9
2022-10-23T10:16:37.094Z,33.16
2022-10-23T10:17:37.108Z,32.37
2022-10-23T10:18:37.108Z,31.59
2022-10-23T10:19:37.096Z,30.88
2022-10-23T10:20:37.096Z,30.33
2022-10-23T10:21:37.109Z,29.91
2022-10-23T10:22:37.111Z,29.5
2022-10-23T10:23:37.098Z,29.09
2022-10-23T10:24:37.098Z,28.72
2022-10-23T10:25:37.113Z,28.39
2022-10-23T10:26:37.112Z,28.11
2022-10-23T10:27:37.100Z,27.91
2022-10-23T10:28:37.113Z,27.84
2022-10-23T10:29:37.115Z,27.86
2022-10-23T10:30:37.115Z,28.08
2022-10-23T10:31:37.102Z,28.48
2022-10-23T10:32:37.116Z,28.88
2022-10-23T10:33:37.116Z,29.13
2022-10-23T10:34:37.116Z,29.33
2022-10-23T10:35:37.104Z,29.5
2022-10-23T10:36:37.117Z,29.53
2022-10-23T10:37:37.119Z,29.68
2022-10-23T10:38:37.105Z,30.2
2022-10-23T10:39:37.106Z,30.83
2022-10-23T10:40:37.120Z,31.33
2022-10-23T10:41:37.121Z,31.77
2022-10-23T10:42:37.108Z,32.15
2022-10-23T10:43:37.146Z,32.47
2022-10-23T10:44:37.121Z,32.72
2022-10-23T10:45:37.122Z,32.93
2022-10-23T10:46:37.110Z,33.06
2022-10-23T10:47:37.123Z,33.12
2022-10-23T10:48:37.125Z,33.11
2022-10-23T10:49:37.124Z,33.09
2022-10-23T10:50:37.112Z,33
2022-10-23T10:51:37.126Z,32.9
2022-10-23T10:52:37.127Z,32.78
2022-10-23T10:53:37.127Z,32.66
2022-10-23T10:54:37.114Z,32.62
2022-10-23T10:55:37.178Z,32.61
2022-10-23T10:56:37.129Z,32.53
2022-10-23T10:57:37.116Z,32.45
2022-10-23T10:58:37.117Z,32.5
2022-10-23T10:59:37.131Z,32.7
2022-10-23T11:00:37.130Z,32.77
2022-10-23T11:01:37.119Z,32.75
2022-10-23T11:02:37.132Z,32.68
2022-10-23T11:03:37.133Z,32.57
2022-10-23T11:04:37.134Z,32.31
2022-10-23T11:05:37.120Z,32.05
2022-10-23T11:06:37.135Z,31.89
2022-10-23T11:07:37.187Z,31.85
2022-10-23T11:08:37.136Z,32
2022-10-23T11:09:46.381Z,32.43
2022-10-23T11:10:37.137Z,32.91
2022-10-23T11:11:37.137Z,33.54
2022-10-23T11:12:37.138Z,34.14
2022-10-23T11:13:37.126Z,34.65
2022-10-23T11:14:37.139Z,34.84
2022-10-23T11:15:37.140Z,34.9
2022-10-23T11:16:37.126Z,35
2022-10-23T11:17:37.128Z,35.14
2022-10-23T11:18:37.141Z,34.97
2022-10-23T11:19:37.143Z,34.7
2022-10-23T11:20:37.129Z,34.56
2022-10-23T11:21:37.143Z,34.49
2022-10-23T11:22:37.144Z,34.33
2022-10-23T11:23:37.144Z,34.09
2022-10-23T11:24:37.131Z,33.78
2022-10-23T11:25:37.145Z,33.5
2022-10-23T11:26:37.146Z,33.3
2022-10-23T11:27:37.146Z,33.16
2022-10-23T11:28:37.133Z,33.06
2022-10-23T11:29:37.148Z,32.96
2022-10-23T11:30:37.149Z,32.86
2022-10-23T11:31:37.161Z,32.82
2022-10-23T11:32:37.137Z,32.77
2022-10-23T11:33:37.150Z,32.66
2022-10-23T11:34:37.149Z,32.55
2022-10-23T11:35:37.137Z,32.36
2022-10-23T11:36:37.139Z,32.11
2022-10-23T11:37:37.152Z,31.86
2022-10-23T11:38:37.152Z,31.6
2022-10-23T11:39:37.140Z,31.36
2022-10-23T11:40:37.154Z,31.17
2022-10-23T11:41:37.153Z,31.04
2022-10-23T11:42:37.154Z,30.96
2022-10-23T11:43:37.142Z,30.92
2022-10-23T11:44:37.156Z,30.94
2022-10-23T11:45:37.158Z,31.01
2022-10-23T11:46:37.157Z,31.13
2022-10-23T11:47:37.144Z,31.29
2022-10-23T11:48:37.158Z,31.51
2022-10-23T11:49:37.159Z,31.79
2022-10-23T11:50:37.146Z,32.07
2022-10-23T11:51:37.146Z,32.22
2022-10-23T11:52:37.160Z,32.16
2022-10-23T11:53:37.161Z,32.11
2022-10-23T11:54:37.148Z,32.12
2022-10-23T11:55:37.226Z,32.18
2022-10-23T11:56:37.163Z,32.23
2022-10-23T11:57:37.163Z,32.34
2022-10-23T11:58:37.150Z,32.43
2022-10-23T11:59:37.164Z,32.45
2022-10-23T12:00:37.165Z,32.5
2022-10-23T12:01:37.164Z,32.55
2022-10-23T12:02:37.152Z,32.49
2022-10-23T12:03:37.167Z,32.31
2022-10-23T12:04:37.166Z,32.08
2022-10-23T12:05:37.167Z,31.82
2022-10-23T12:06:37.155Z,31.57
2022-10-23T12:07:37.193Z,31.28
2022-10-23T12:08:37.169Z,30.99
2022-10-23T12:09:37.156Z,30.76
2022-10-23T12:10:37.158Z,30.55
2022-10-23T12:11:37.171Z,30.44
2022-10-23T12:12:37.172Z,30.38
2022-10-23T12:13:37.158Z,30.32
2022-10-23T12:14:37.172Z,30.25
2022-10-23T12:15:37.173Z,30.16
2022-10-23T12:16:37.173Z,30.07
2022-10-23T12:17:37.160Z,29.96
2022-10-23T12:18:37.175Z,29.87
2022-10-23T12:19:37.226Z,29.78
2022-10-23T12:20:37.175Z,29.72
2022-10-23T12:21:37.163Z,29.58
2022-10-23T12:22:37.176Z,29.44
2022-10-23T12:23:37.178Z,29.34
2022-10-23T12:24:37.178Z,29.22
2022-10-23T12:25:37.165Z,29.07
2022-10-23T12:26:37.179Z,28.94
2022-10-23T12:27:37.179Z,28.8
2022-10-23T12:28:37.166Z,28.65
2022-10-23T12:29:37.168Z,28.53
2022-10-23T12:30:37.181Z,28.39
2022-10-23T12:31:37.206Z,28.3
2022-10-23T12:32:37.168Z,28.23
2022-10-23T12:33:37.182Z,28.19
2022-10-23T12:34:37.183Z,28.16
2022-10-23T12:35:37.183Z,28.13
2022-10-23T12:36:37.171Z,28.07
2022-10-23T12:37:37.184Z,27.98
2022-10-23T12:38:37.186Z,27.92
2022-10-23T12:39:37.185Z,27.89
2022-10-23T12:40:37.173Z,27.82
2022-10-23T12:41:37.185Z,27.75
2022-10-23T12:42:37.187Z,27.7
2022-10-23T12:43:37.174Z,27.63
2022-10-23T12:44:37.174Z,27.56
2022-10-23T12:45:37.187Z,27.51
2022-10-23T12:46:37.190Z,27.46
2022-10-23T12:47:37.176Z,27.44
2022-10-23T12:48:37.177Z,27.4
2022-10-23T12:49:46.448Z,27.36
2022-10-23T12:50:37.255Z,27.31
2022-10-23T12:51:37.178Z,27.24
2022-10-23T12:52:37.192Z,27.17
2022-10-23T12:53:37.192Z,27.14
2022-10-23T12:54:37.192Z,27.15
2022-10-23T12:55:37.180Z,27.16
2022-10-23T12:56:37.194Z,27.17
2022-10-23T12:57:37.194Z,27.16